Timber Mountain, Nevada Weather observations

Data are for 10 minute period ending at time listed.
 Day   Time   Solar   Ave.   Ave.  Ave.  Vector  Max.   Baro.   Total    
  of    of     Rad.   Air    Rel.  Wind   Wind   Wind  Press.  Precip.   
Year   Day            Temp.  Hum.  Speed  Dir.   Gust                    
2017   (PST)  Kw/m2    F      %     mph   deg.    mph    mb.     in.     
-------------------------------------------------------------------------
  22   14:00   0.22   28.6    96   19.1   147    35.4   802.6    0.00 
  22   15:00   0.12   28.9    98   15.7   144    27.8   802.7    0.00 
  22   16:00   0.06   28.9    98   17.5   143    30.3   802.2    0.00 
  22   17:00   0.02   28.9    98   17.1   139    30.2   802.1    0.00 
  22   18:00   0.00   29.3    99   18.6   141    39.1   801.2    0.00 
  22   19:00   0.00   30.3   100   19.7   143    38.2   800.3    0.00 
  22   20:00   0.00   31.0   100   14.7   153    32.2   799.8    0.00 
  22   21:00   0.00   31.2   100   14.0   167    38.9   799.3    0.00 
  22   22:00   0.00   31.9   100   16.8   183    40.0   799.4    0.00 
  22   23:00   0.00   31.9   100   18.0   184    37.3   799.4    0.00 
  23    0:00   0.00   31.6   100   16.6   184    34.0   798.8    0.00 
  23    1:00   0.00   31.3   100   16.8   185    37.3   797.8    0.00 
  23    2:00   0.00   31.3   100   18.0   185    42.5   797.4    0.00 
  23    3:00   0.00   31.2   101   14.8   192    37.4   797.2    0.00 
  23    4:00   0.00   30.6   100   12.8   194    31.0   796.5    0.00 
  23    5:00   0.00   29.5    98   10.4   217    26.3   796.6    0.00 
  23    6:00   0.00   27.8    90    7.5   200    26.5   797.0    0.00 
  23    7:00   0.00   27.4    81   11.3   209    28.1   797.1    0.00 
  23    8:00   0.07   27.8    80   10.8   215    26.6   797.3    0.00 
  23    9:00   0.25   30.2    75   10.1   229    23.3   798.2    0.00 
  23   10:00   0.46   33.7    69    8.6   241    14.8   799.3    0.06 
  23   11:00   0.41   33.0    70    6.5   220    11.9   799.7    0.09 
  23   12:00   0.28   32.1    74    4.7   229    11.2   799.2    0.04 
  23   13:00   0.43   33.1    69    6.0   203    14.0   798.4    0.04 

Return to Timber Mountain graphs page.


Western Regional Climate Center,wrcc@dri.edu